Time;durP1;ratioP1;P1;durP2;ratioP2;P2;SDS_P1;SDS_P2;PMS_P1;PMS_P2;Temp;Humidity;BMP_temperature;BMP_pressure;BME280_temperature;BME280_humidity;BME280_pressure;Samples;Min_cycle;Max_cycle;Signal;HPM_P1;HPM_P2
2023/01/08 00:02:09;;;;;;;4.57;3.20;;;;;;;;;;4958219;28;20183;-88
2023/01/08 00:04:35;;;;;;;3.63;3.20;;;;;;;;;;4966984;28;20186;-88
2023/01/08 00:07:01;;;;;;;3.57;3.10;;;;;;;;;;4984483;28;20266;-88
2023/01/08 00:09:27;;;;;;;4.70;3.33;;;;;;;;;;4950397;28;20178;-80
2023/01/08 00:11:53;;;;;;;3.43;3.13;;;;;;;;;;4959815;28;20198;-80
2023/01/08 00:14:19;;;;;;;3.40;3.10;;;;;;;;;;4977431;28;20174;-80
2023/01/08 00:16:45;;;;;;;3.70;2.93;;;;;;;;;;4994657;28;20181;-80
2023/01/08 00:19:11;;;;;;;3.33;2.80;;;;;;;;;;4957649;28;20328;-80
2023/01/08 00:21:38;;;;;;;4.00;3.33;;;;;;;;;;4965972;28;20182;-80
2023/01/08 00:24:04;;;;;;;3.70;3.40;;;;;;;;;;4989935;28;20273;-80
2023/01/08 00:26:30;;;;;;;3.87;3.37;;;;;;;;;;4957488;28;20182;-81
2023/01/08 00:28:56;;;;;;;4.63;3.37;;;;;;;;;;4960911;28;20182;-80
2023/01/08 00:31:22;;;;;;;5.67;3.37;;;;;;;;;;4970474;28;20190;-81
2023/01/08 00:33:48;;;;;;;3.93;3.10;;;;;;;;;;4960327;28;20189;-80
2023/01/08 00:36:15;;;;;;;5.90;3.73;;;;;;;;;;4960388;28;20220;-80
2023/01/08 00:38:41;;;;;;;3.97;3.47;;;;;;;;;;4976319;28;20262;-80
2023/01/08 00:41:07;;;;;;;5.83;3.40;;;;;;;;;;4968721;28;20182;-81
2023/01/08 00:43:33;;;;;;;6.03;3.33;;;;;;;;;;4960750;28;20182;-88
2023/01/08 00:45:59;;;;;;;3.50;3.10;;;;;;;;;;4977733;28;20182;-88
2023/01/08 00:48:25;;;;;;;5.07;3.40;;;;;;;;;;4958271;28;20178;-88
2023/01/08 00:50:52;;;;;;;4.57;3.30;;;;;;;;;;4957165;28;20246;-87
2023/01/08 00:53:19;;;;;;;3.70;3.20;;;;;;;;;;4957586;28;20202;-89
2023/01/08 00:55:45;;;;;;;3.30;2.93;;;;;;;;;;4957567;28;20244;-81
2023/01/08 00:58:12;;;;;;;4.13;3.60;;;;;;;;;;4914353;28;1153063;-80
2023/01/08 01:00:38;;;;;;;4.93;3.23;;;;;;;;;;4976204;28;20236;-80
2023/01/08 01:03:04;;;;;;;3.57;2.90;;;;;;;;;;4970383;28;20183;-80
2023/01/08 01:05:30;;;;;;;3.53;2.90;;;;;;;;;;4948533;28;20186;-80
2023/01/08 01:07:56;;;;;;;4.33;3.40;;;;;;;;;;4945844;28;20209;-80
2023/01/08 01:10:23;;;;;;;5.20;3.20;;;;;;;;;;4965365;28;20199;-80
2023/01/08 01:12:49;;;;;;;4.70;3.40;;;;;;;;;;4969634;28;20193;-80
2023/01/08 01:15:16;;;;;;;7.43;3.23;;;;;;;;;;4964456;28;20242;-80
2023/01/08 01:17:43;;;;;;;5.00;3.00;;;;;;;;;;4959251;28;20202;-85
2023/01/08 01:20:10;;;;;;;4.73;3.43;;;;;;;;;;4967241;28;20251;-85
2023/01/08 01:22:36;;;;;;;4.93;3.10;;;;;;;;;;4975105;28;20193;-85
2023/01/08 01:25:02;;;;;;;4.63;3.30;;;;;;;;;;4963373;28;20178;-85
2023/01/08 01:27:28;;;;;;;5.97;3.30;;;;;;;;;;4958644;28;20197;-86
2023/01/08 01:29:54;;;;;;;3.83;3.43;;;;;;;;;;4951380;28;20190;-86
2023/01/08 01:32:20;;;;;;;5.20;3.40;;;;;;;;;;4957718;28;20265;-85
2023/01/08 01:34:46;;;;;;;7.53;3.63;;;;;;;;;;4959091;28;20214;-85
2023/01/08 01:37:13;;;;;;;5.00;3.40;;;;;;;;;;4977111;28;20186;-85
2023/01/08 01:39:40;;;;;;;5.93;3.60;;;;;;;;;;4957505;28;20265;-84
2023/01/08 01:42:38;;;;;;;6.97;3.67;;;;;;;;;;4957701;28;20179;-85
2023/01/08 01:44:52;;;;;;;7.20;3.80;;;;;;;;;;4970598;28;20201;-85
2023/01/08 01:47:21;;;;;;;4.30;3.57;;;;;;;;;;4960883;28;20179;-85
2023/01/08 01:50:10;;;;;;;4.50;3.33;;;;;;;;;;4990762;28;20272;-80
2023/01/08 01:52:37;;;;;;;4.70;3.30;;;;;;;;;;4968246;28;20249;-80
2023/01/08 01:55:05;;;;;;;6.53;3.30;;;;;;;;;;4961472;28;20229;-80
2023/01/08 01:57:32;;;;;;;5.63;3.20;;;;;;;;;;4960905;28;20226;-81
2023/01/08 01:59:59;;;;;;;4.53;3.40;;;;;;;;;;4987179;28;20186;-80
2023/01/08 02:02:25;;;;;;;5.43;3.73;;;;;;;;;;4977841;28;20240;-80
2023/01/08 02:04:51;;;;;;;4.23;3.30;;;;;;;;;;4968053;28;20217;-80
2023/01/08 02:07:26;;;;;;;5.90;3.70;;;;;;;;;;4961124;28;20240;-81
2023/01/08 02:10:16;;;;;;;4.20;3.43;;;;;;;;;;4972161;28;20190;-80
2023/01/08 02:12:46;;;;;;;6.73;3.67;;;;;;;;;;4961078;28;20258;-81
2023/01/08 02:15:18;;;;;;;5.80;3.83;;;;;;;;;;4960849;28;20238;-80
2023/01/08 02:17:49;;;;;;;6.27;3.90;;;;;;;;;;4960603;28;20273;-80
2023/01/08 02:20:38;;;;;;;4.83;3.50;;;;;;;;;;4967530;28;20205;-80
2023/01/08 02:23:07;;;;;;;8.20;3.90;;;;;;;;;;4965690;28;20236;-80
2023/01/08 02:25:37;;;;;;;7.90;3.80;;;;;;;;;;4970845;28;20246;-80
2023/01/08 02:28:05;;;;;;;6.07;3.50;;;;;;;;;;4971386;28;20175;-80
2023/01/08 02:30:31;;;;;;;6.50;4.10;;;;;;;;;;4968581;28;20189;-80
2023/01/08 02:32:57;;;;;;;7.50;4.23;;;;;;;;;;4954058;28;20298;-80
2023/01/08 02:35:23;;;;;;;5.93;3.63;;;;;;;;;;4967618;28;20304;-80
2023/01/08 02:37:49;;;;;;;8.53;3.77;;;;;;;;;;4967904;28;20187;-80
2023/01/08 02:40:21;;;;;;;6.20;3.93;;;;;;;;;;4970659;28;20179;-80
2023/01/08 02:42:50;;;;;;;5.57;3.80;;;;;;;;;;4965066;28;20182;-80
2023/01/08 02:45:21;;;;;;;6.90;3.90;;;;;;;;;;4969731;28;20182;-81
2023/01/08 02:48:07;;;;;;;6.20;3.73;;;;;;;;;;4967793;28;20218;-80
2023/01/08 02:50:33;;;;;;;6.07;3.77;;;;;;;;;;4971381;28;20183;-80
2023/01/08 02:53:02;;;;;;;8.27;3.90;;;;;;;;;;4969221;28;20201;-80
2023/01/08 02:55:30;;;;;;;6.70;4.00;;;;;;;;;;4970806;28;20206;-80
2023/01/08 02:57:57;;;;;;;6.83;3.97;;;;;;;;;;4967447;28;20316;-80
2023/01/08 03:00:23;;;;;;;5.87;2.97;;;;;;;;;;4967265;28;20178;-80
2023/01/08 03:02:51;;;;;;;4.63;3.00;;;;;;;;;;4983744;28;20206;-81
2023/01/08 03:05:23;;;;;;;7.70;3.53;;;;;;;;;;4967995;28;20265;-79
2023/01/08 03:07:49;;;;;;;4.40;2.57;;;;;;;;;;4984779;28;20190;-79
2023/01/08 03:10:15;;;;;;;5.80;2.33;;;;;;;;;;4965228;28;20273;-79
2023/01/08 03:12:50;;;;;;;5.20;1.87;;;;;;;;;;4969657;28;20190;-79
2023/01/08 03:15:20;;;;;;;4.93;1.87;;;;;;;;;;4965726;28;20298;-79
2023/01/08 03:17:48;;;;;;;4.37;1.90;;;;;;;;;;4968248;28;20210;-79
2023/01/08 03:20:16;;;;;;;2.27;1.50;;;;;;;;;;4968374;28;20187;-80
2023/01/08 03:22:44;;;;;;;3.43;1.70;;;;;;;;;;4969187;28;20183;-79
2023/01/08 03:25:11;;;;;;;3.47;1.80;;;;;;;;;;4969468;28;20190;-80
2023/01/08 03:27:39;;;;;;;4.57;1.80;;;;;;;;;;4966821;28;20201;-79
2023/01/08 03:30:07;;;;;;;3.17;1.60;;;;;;;;;;4968969;28;20326;-80
2023/01/08 03:32:33;;;;;;;4.23;1.60;;;;;;;;;;4955686;28;20191;-80
2023/01/08 03:35:00;;;;;;;3.23;1.20;;;;;;;;;;4965177;28;20206;-80
2023/01/08 03:37:28;;;;;;;3.33;1.40;;;;;;;;;;4968818;28;20194;-80
2023/01/08 03:40:05;;;;;;;5.93;1.50;;;;;;;;;;4966919;28;20182;-80
2023/01/08 03:42:31;;;;;;;2.53;1.53;;;;;;;;;;4971325;28;20178;-80
2023/01/08 03:44:58;;;;;;;4.97;1.67;;;;;;;;;;4966293;28;20182;-80
2023/01/08 03:47:24;;;;;;;4.33;1.50;;;;;;;;;;4986083;28;20194;-85
2023/01/08 03:49:51;;;;;;;4.33;1.20;;;;;;;;;;4969668;28;20261;-85
2023/01/08 03:52:22;;;;;;;4.40;1.40;;;;;;;;;;4966761;28;20183;-85
2023/01/08 03:54:48;;;;;;;4.73;1.50;;;;;;;;;;4967470;28;20214;-85
2023/01/08 03:57:14;;;;;;;2.30;1.20;;;;;;;;;;4951853;28;20261;-85
2023/01/08 03:59:40;;;;;;;5.07;1.40;;;;;;;;;;4966045;28;20222;-85
2023/01/08 04:02:06;;;;;;;2.87;1.30;;;;;;;;;;4966840;28;20180;-85
2023/01/08 04:04:32;;;;;;;3.40;1.30;;;;;;;;;;4955405;28;20191;-88
2023/01/08 04:06:58;;;;;;;4.20;1.50;;;;;;;;;;4950335;28;20195;-88
2023/01/08 04:09:24;;;;;;;4.17;1.60;;;;;;;;;;4954826;28;20241;-87
2023/01/08 04:11:50;;;;;;;5.00;1.17;;;;;;;;;;4970896;28;20186;-87
2023/01/08 04:14:17;;;;;;;6.60;1.57;;;;;;;;;;4959021;28;20198;-88
2023/01/08 04:16:43;;;;;;;5.57;1.50;;;;;;;;;;4959040;28;20264;-88
2023/01/08 04:19:10;;;;;;;4.50;1.57;;;;;;;;;;4964339;28;20183;-87
2023/01/08 04:21:36;;;;;;;9.57;2.03;;;;;;;;;;4981544;28;20179;-88
2023/01/08 04:24:02;;;;;;;13.07;1.67;;;;;;;;;;4955105;28;20193;-88
2023/01/08 04:26:28;;;;;;;5.70;1.73;;;;;;;;;;4958140;28;20261;-89
2023/01/08 04:28:54;;;;;;;7.17;1.47;;;;;;;;;;4977093;28;20182;-89
2023/01/08 04:31:20;;;;;;;7.80;1.77;;;;;;;;;;4960168;28;20191;-88
2023/01/08 04:33:46;;;;;;;5.50;1.57;;;;;;;;;;4972462;28;20264;-87
2023/01/08 04:36:14;;;;;;;5.03;1.57;;;;;;;;;;4951521;28;20302;-80
2023/01/08 04:38:40;;;;;;;5.73;1.60;;;;;;;;;;4958467;28;20183;-80
2023/01/08 04:41:06;;;;;;;7.37;1.60;;;;;;;;;;4964002;28;20257;-80
2023/01/08 04:43:32;;;;;;;7.93;2.13;;;;;;;;;;4969273;28;20274;-80
2023/01/08 04:46:01;;;;;;;5.40;1.87;;;;;;;;;;4986149;28;20182;-80
2023/01/08 04:48:28;;;;;;;6.53;1.70;;;;;;;;;;4988772;28;20178;-85
2023/01/08 04:50:54;;;;;;;6.87;1.70;;;;;;;;;;4961752;28;20182;-84
2023/01/08 04:53:20;;;;;;;8.27;1.70;;;;;;;;;;4962444;28;20228;-87
2023/01/08 04:55:46;;;;;;;6.47;1.70;;;;;;;;;;4958908;28;20222;-88
2023/01/08 04:58:12;;;;;;;7.90;1.53;;;;;;;;;;4977955;28;20237;-89
2023/01/08 05:00:39;;;;;;;6.20;1.60;;;;;;;;;;4961920;28;20190;-89
2023/01/08 05:03:05;;;;;;;7.53;1.70;;;;;;;;;;4977206;28;20265;-89
2023/01/08 05:05:32;;;;;;;4.03;1.37;;;;;;;;;;4961811;28;20190;-88
2023/01/08 05:07:58;;;;;;;5.20;1.43;;;;;;;;;;4977755;28;20182;-88
2023/01/08 05:10:24;;;;;;;5.13;1.80;;;;;;;;;;4977725;28;20245;-85
2023/01/08 05:12:50;;;;;;;4.63;1.40;;;;;;;;;;4958608;28;20205;-85
2023/01/08 05:15:16;;;;;;;5.10;1.30;;;;;;;;;;4959584;28;20206;-86
2023/01/08 05:17:42;;;;;;;4.53;1.80;;;;;;;;;;4955182;28;20189;-86
2023/01/08 05:20:09;;;;;;;7.27;2.00;;;;;;;;;;4968838;28;20190;-85
2023/01/08 05:22:35;;;;;;;4.87;1.50;;;;;;;;;;4958615;28;20187;-85
2023/01/08 05:25:01;;;;;;;5.70;1.83;;;;;;;;;;4961920;28;20182;-85
2023/01/08 05:27:27;;;;;;;5.37;1.90;;;;;;;;;;4979399;28;20202;-88
2023/01/08 05:29:53;;;;;;;4.17;1.50;;;;;;;;;;4979032;28;20191;-88
2023/01/08 05:32:19;;;;;;;7.07;1.97;;;;;;;;;;4945965;28;20190;-88
2023/01/08 05:34:45;;;;;;;7.53;2.03;;;;;;;;;;4961814;28;20179;-88
2023/01/08 05:37:11;;;;;;;2.73;1.40;;;;;;;;;;4961744;28;20182;-88
2023/01/08 05:39:38;;;;;;;5.37;1.80;;;;;;;;;;4946196;28;20186;-88
2023/01/08 05:42:04;;;;;;;5.00;1.80;;;;;;;;;;4962546;28;20190;-88
2023/01/08 05:44:30;;;;;;;8.30;2.10;;;;;;;;;;4961929;28;20204;-80
2023/01/08 05:46:56;;;;;;;6.30;1.87;;;;;;;;;;4961827;28;20193;-80
2023/01/08 05:49:23;;;;;;;5.80;1.93;;;;;;;;;;4965015;28;20182;-80
2023/01/08 05:51:49;;;;;;;4.20;1.87;;;;;;;;;;4978679;28;20232;-81
2023/01/08 05:54:15;;;;;;;6.13;1.93;;;;;;;;;;4978478;28;20183;-80
2023/01/08 05:56:42;;;;;;;3.87;1.63;;;;;;;;;;4945283;28;20210;-80
2023/01/08 05:59:12;;;;;;;3.10;1.90;;;;;;;;;;4961773;28;20179;-80
2023/01/08 06:01:38;;;;;;;3.97;1.80;;;;;;;;;;4978617;28;20171;-80
2023/01/08 06:04:04;;;;;;;3.57;1.80;;;;;;;;;;4961184;28;20178;-80
2023/01/08 06:06:31;;;;;;;6.27;2.17;;;;;;;;;;4945601;28;20206;-80
2023/01/08 06:08:57;;;;;;;4.40;1.70;;;;;;;;;;4978488;28;20179;-80
2023/01/08 06:11:23;;;;;;;4.47;1.93;;;;;;;;;;4945657;28;20183;-80
2023/01/08 06:13:49;;;;;;;6.57;1.67;;;;;;;;;;4961286;28;20193;-80
2023/01/08 06:16:16;;;;;;;4.77;1.80;;;;;;;;;;4945514;28;20219;-85
2023/01/08 06:18:42;;;;;;;2.93;1.60;;;;;;;;;;4953812;28;20187;-85
2023/01/08 06:21:08;;;;;;;3.23;1.70;;;;;;;;;;4961464;28;20221;-85
2023/01/08 06:23:34;;;;;;;2.90;1.40;;;;;;;;;;4945171;28;20210;-85
2023/01/08 06:26:02;;;;;;;3.50;1.50;;;;;;;;;;4944843;28;20221;-85
2023/01/08 06:28:29;;;;;;;3.17;1.60;;;;;;;;;;4949396;28;20194;-85
2023/01/08 06:30:57;;;;;;;4.40;1.90;;;;;;;;;;4961377;28;20234;-85
2023/01/08 06:33:23;;;;;;;3.40;1.60;;;;;;;;;;4967255;28;20188;-85
2023/01/08 06:35:49;;;;;;;2.17;1.50;;;;;;;;;;4964377;28;20214;-85
2023/01/08 06:38:17;;;;;;;3.37;1.60;;;;;;;;;;4964299;28;20186;-85
2023/01/08 06:40:44;;;;;;;3.03;1.70;;;;;;;;;;4964419;28;20178;-85
2023/01/08 06:43:10;;;;;;;5.17;1.40;;;;;;;;;;4993006;28;20202;-85
2023/01/08 06:45:36;;;;;;;6.00;1.63;;;;;;;;;;4978103;28;20186;-85
2023/01/08 06:48:02;;;;;;;4.83;1.43;;;;;;;;;;4960752;28;20190;-85
2023/01/08 06:50:29;;;;;;;5.33;1.67;;;;;;;;;;4944674;28;20183;-80
2023/01/08 06:52:55;;;;;;;4.10;1.80;;;;;;;;;;4960362;28;20341;-80
2023/01/08 06:55:22;;;;;;;3.30;1.40;;;;;;;;;;4944585;28;20222;-80
2023/01/08 06:57:52;;;;;;;4.33;1.90;;;;;;;;;;4960333;28;20228;-80
2023/01/08 07:00:18;;;;;;;3.10;1.53;;;;;;;;;;4960291;28;20178;-80
2023/01/08 07:02:44;;;;;;;4.87;1.60;;;;;;;;;;4960662;28;20183;-80
2023/01/08 07:05:10;;;;;;;3.73;1.43;;;;;;;;;;4944683;28;20186;-79
2023/01/08 07:07:36;;;;;;;5.73;1.70;;;;;;;;;;4960314;28;20190;-89
2023/01/08 07:10:02;;;;;;;6.50;1.67;;;;;;;;;;4944411;28;20183;-88
2023/01/08 07:12:28;;;;;;;4.50;1.83;;;;;;;;;;4954294;28;20285;-88
2023/01/08 07:14:54;;;;;;;5.97;2.10;;;;;;;;;;4960378;28;20228;-88
2023/01/08 07:17:20;;;;;;;5.07;1.97;;;;;;;;;;4960186;28;20174;-87
2023/01/08 07:19:46;;;;;;;6.73;1.87;;;;;;;;;;4968379;28;20182;-89
2023/01/08 07:22:12;;;;;;;5.63;1.90;;;;;;;;;;4960162;28;20183;-88
2023/01/08 07:24:38;;;;;;;4.07;1.60;;;;;;;;;;4955591;28;20190;-85
2023/01/08 07:27:04;;;;;;;5.67;1.83;;;;;;;;;;4963407;28;20192;-86
2023/01/08 07:29:30;;;;;;;4.47;1.73;;;;;;;;;;4963340;28;20182;-85
2023/01/08 07:31:56;;;;;;;5.73;1.80;;;;;;;;;;4959788;28;20201;-85
2023/01/08 07:34:22;;;;;;;4.03;1.77;;;;;;;;;;4960227;28;20186;-84
2023/01/08 07:36:48;;;;;;;7.60;2.27;;;;;;;;;;4945931;28;20206;-86
2023/01/08 07:39:15;;;;;;;7.13;2.10;;;;;;;;;;4949451;28;20190;-85
2023/01/08 07:41:41;;;;;;;6.53;2.07;;;;;;;;;;4962794;28;20186;-85
2023/01/08 07:44:06;;;;;;;4.53;1.73;;;;;;;;;;4962775;28;20261;-85
2023/01/08 07:46:32;;;;;;;5.00;1.67;;;;;;;;;;4976926;28;20201;-85
2023/01/08 07:48:59;;;;;;;7.03;2.37;;;;;;;;;;4988909;28;20270;-85
2023/01/08 07:51:25;;;;;;;6.07;1.73;;;;;;;;;;4962210;28;20262;-85
2023/01/08 07:53:51;;;;;;;5.57;1.77;;;;;;;;;;4958937;28;20220;-85
2023/01/08 07:56:17;;;;;;;6.87;2.13;;;;;;;;;;4963404;28;20218;-88
2023/01/08 07:58:43;;;;;;;7.23;2.17;;;;;;;;;;4965953;28;20333;-87
2023/01/08 08:01:10;;;;;;;5.60;1.93;;;;;;;;;;4980365;28;20204;-87
2023/01/08 08:03:37;;;;;;;7.27;1.90;;;;;;;;;;4967683;28;20178;-88
2023/01/08 08:06:03;;;;;;;6.27;2.00;;;;;;;;;;4984420;28;20218;-88
2023/01/08 08:08:29;;;;;;;7.97;1.87;;;;;;;;;;4964519;28;20493;-89
2023/01/08 08:13:31;;;;;;;10.07;2.20;;;;;;;;;;4974440;28;20206;-89
2023/01/08 08:16:00;;;;;;;7.17;1.90;;;;;;;;;;4951923;28;20218;-89
2023/01/08 08:18:26;;;;;;;6.17;1.90;;;;;;;;;;4969435;28;20198;-88
2023/01/08 08:20:52;;;;;;;5.90;2.10;;;;;;;;;;4954465;28;20175;-88
2023/01/08 08:23:18;;;;;;;5.77;1.80;;;;;;;;;;4969664;28;20186;-88
2023/01/08 08:25:45;;;;;;;5.87;2.07;;;;;;;;;;4952713;28;20194;-88
2023/01/08 08:28:11;;;;;;;6.17;2.33;;;;;;;;;;4954121;28;20190;-88
2023/01/08 08:30:38;;;;;;;8.80;2.13;;;;;;;;;;4961778;28;20185;-85
2023/01/08 08:33:10;;;;;;;10.40;2.27;;;;;;;;;;4974691;28;20178;-84
2023/01/08 08:35:36;;;;;;;8.70;2.20;;;;;;;;;;4957513;28;20202;-84
2023/01/08 08:38:02;;;;;;;9.27;2.40;;;;;;;;;;4960851;28;20269;-85
2023/01/08 08:40:29;;;;;;;7.07;2.07;;;;;;;;;;4964902;28;20186;-84
2023/01/08 08:42:59;;;;;;;12.33;2.13;;;;;;;;;;4948459;28;20182;-84
2023/01/08 08:45:25;;;;;;;5.60;1.83;;;;;;;;;;4944553;28;20195;-85
2023/01/08 08:47:51;;;;;;;9.50;2.17;;;;;;;;;;4961637;28;20241;-84
2023/01/08 08:50:17;;;;;;;8.37;1.93;;;;;;;;;;4947617;28;20179;-84
2023/01/08 08:52:44;;;;;;;8.30;2.13;;;;;;;;;;4923724;29;20191;-84
2023/01/08 08:55:14;;;;;;;8.77;1.90;;;;;;;;;;4935793;28;20219;-84
2023/01/08 08:57:40;;;;;;;10.80;2.50;;;;;;;;;;4955332;28;20191;-84
2023/01/08 09:00:07;;;;;;;6.87;2.20;;;;;;;;;;4955084;28;20191;-84
2023/01/08 09:02:33;;;;;;;5.37;1.60;;;;;;;;;;4957020;28;20194;-84
2023/01/08 09:04:59;;;;;;;7.83;2.17;;;;;;;;;;4939662;28;20243;-80
2023/01/08 09:07:25;;;;;;;8.20;2.20;;;;;;;;;;4989143;28;20182;-82
2023/01/08 09:09:51;;;;;;;6.17;1.87;;;;;;;;;;4941142;29;20195;-81
2023/01/08 09:12:18;;;;;;;6.23;1.83;;;;;;;;;;4923371;29;20235;-80
2023/01/08 09:14:44;;;;;;;8.13;2.00;;;;;;;;;;4939077;28;20216;-81
2023/01/08 09:17:10;;;;;;;9.70;2.37;;;;;;;;;;4940513;28;20195;-81
2023/01/08 09:19:37;;;;;;;7.70;2.00;;;;;;;;;;4929908;28;20195;-84
2023/01/08 09:22:03;;;;;;;5.00;1.60;;;;;;;;;;4937083;28;20190;-85
2023/01/08 09:24:31;;;;;;;8.23;1.90;;;;;;;;;;4958940;28;20186;-84
2023/01/08 09:26:57;;;;;;;8.70;2.40;;;;;;;;;;4945856;28;20182;-84
2023/01/08 09:29:23;;;;;;;7.70;2.03;;;;;;;;;;4931962;29;20214;-85
2023/01/08 09:31:49;;;;;;;8.00;2.20;;;;;;;;;;4942452;28;20187;-84
2023/01/08 09:34:16;;;;;;;7.77;2.00;;;;;;;;;;4942676;28;20197;-85
2023/01/08 09:36:42;;;;;;;7.17;2.33;;;;;;;;;;4953874;28;20221;-92
2023/01/08 09:39:09;;;;;;;10.93;2.33;;;;;;;;;;4939914;28;20258;-89
2023/01/08 09:41:36;;;;;;;9.10;1.80;;;;;;;;;;4936669;29;20242;-90
2023/01/08 09:44:04;;;;;;;5.60;2.17;;;;;;;;;;4939793;28;20188;-90
2023/01/08 09:46:30;;;;;;;8.67;2.40;;;;;;;;;;4972069;28;20182;-90
2023/01/08 09:48:58;;;;;;;8.20;2.10;;;;;;;;;;4942159;28;20196;-90
2023/01/08 09:51:27;;;;;;;9.47;2.57;;;;;;;;;;4963867;28;20250;-90
2023/01/08 09:53:55;;;;;;;9.73;2.57;;;;;;;;;;4958455;28;20273;-84
2023/01/08 09:56:21;;;;;;;10.93;2.60;;;;;;;;;;4957267;28;20314;-83
2023/01/08 09:58:58;;;;;;;9.57;2.47;;;;;;;;;;4940396;28;20312;-83
2023/01/08 10:01:27;;;;;;;7.63;2.10;;;;;;;;;;4954477;29;20179;-84
2023/01/08 10:04:13;;;;;;;9.53;2.50;;;;;;;;;;4952531;28;20302;-84
2023/01/08 10:06:40;;;;;;;9.60;2.30;;;;;;;;;;4938217;29;20183;-83
2023/01/08 10:09:06;;;;;;;8.67;2.40;;;;;;;;;;4939927;29;20184;-83
2023/01/08 10:11:37;;;;;;;8.67;2.40;;;;;;;;;;4942016;29;20268;-83
2023/01/08 10:14:05;;;;;;;6.33;2.30;;;;;;;;;;4959268;28;20187;-84
2023/01/08 10:16:34;;;;;;;8.87;2.53;;;;;;;;;;4955370;28;20266;-84
2023/01/08 10:19:03;;;;;;;9.60;2.40;;;;;;;;;;4955072;29;20187;-84
2023/01/08 10:21:31;;;;;;;7.70;2.57;;;;;;;;;;4952409;28;20189;-84
2023/01/08 10:23:57;;;;;;;8.03;2.30;;;;;;;;;;4967428;28;20194;-84
2023/01/08 10:26:24;;;;;;;12.30;2.60;;;;;;;;;;4952442;29;20183;-84
2023/01/08 10:28:50;;;;;;;9.40;2.70;;;;;;;;;;4960255;28;20195;-84
2023/01/08 10:31:16;;;;;;;13.50;2.93;;;;;;;;;;4956259;28;20206;-84
2023/01/08 10:33:43;;;;;;;7.83;2.77;;;;;;;;;;4926011;29;20196;-81
2023/01/08 10:36:10;;;;;;;9.07;2.83;;;;;;;;;;4971067;28;20440;-81
2023/01/08 10:38:39;;;;;;;5.80;2.30;;;;;;;;;;4958059;28;20180;-81
2023/01/08 10:41:10;;;;;;;8.00;2.50;;;;;;;;;;4957485;28;20262;-81
2023/01/08 10:43:37;;;;;;;5.93;2.33;;;;;;;;;;4977807;28;20183;-84
2023/01/08 10:46:03;;;;;;;8.33;2.90;;;;;;;;;;4960228;28;20185;-85
2023/01/08 10:48:33;;;;;;;7.07;2.30;;;;;;;;;;4960949;28;20175;-84
2023/01/08 10:51:26;;;;;;;8.40;2.30;;;;;;;;;;4960710;28;20182;-85
2023/01/08 10:53:53;;;;;;;6.60;2.30;;;;;;;;;;4966793;28;20201;-84
2023/01/08 10:56:26;;;;;;;8.27;2.50;;;;;;;;;;4944982;28;20215;-84
2023/01/08 10:58:52;;;;;;;8.03;2.50;;;;;;;;;;4960449;28;20182;-84
2023/01/08 11:01:21;;;;;;;5.40;2.33;;;;;;;;;;4960983;28;20179;-85
2023/01/08 11:03:56;;;;;;;7.30;2.70;;;;;;;;;;4977453;28;20175;-85
2023/01/08 11:06:23;;;;;;;10.37;2.50;;;;;;;;;;4960128;28;20189;-85
2023/01/08 11:08:51;;;;;;;8.10;2.47;;;;;;;;;;4940961;29;20194;-85
2023/01/08 11:11:17;;;;;;;4.77;2.30;;;;;;;;;;4952422;28;20190;-85
2023/01/08 11:13:52;;;;;;;3.97;2.00;;;;;;;;;;4957461;28;20258;-85
2023/01/08 11:16:18;;;;;;;6.10;2.43;;;;;;;;;;4973694;28;20305;-90
2023/01/08 11:18:48;;;;;;;8.93;2.60;;;;;;;;;;4975082;28;20179;-91
2023/01/08 11:21:22;;;;;;;7.07;2.50;;;;;;;;;;4973054;28;20179;-91
2023/01/08 11:24:01;;;;;;;5.30;2.00;;;;;;;;;;4977406;28;20206;-91
2023/01/08 11:26:27;;;;;;;8.03;2.30;;;;;;;;;;4976443;28;20190;-90
2023/01/08 11:29:07;;;;;;;5.63;2.47;;;;;;;;;;4961093;28;20206;-90
2023/01/08 11:31:45;;;;;;;9.20;2.37;;;;;;;;;;4976399;28;20221;-93
2023/01/08 11:34:21;;;;;;;6.37;2.03;;;;;;;;;;4960666;28;20189;-84
2023/01/08 11:36:50;;;;;;;5.67;2.70;;;;;;;;;;4951607;28;20274;-84
2023/01/08 11:39:17;;;;;;;6.03;2.60;;;;;;;;;;4959715;28;20182;-84
2023/01/08 11:41:55;;;;;;;7.03;2.10;;;;;;;;;;4970047;28;20186;-84
2023/01/08 11:44:29;;;;;;;5.70;2.10;;;;;;;;;;4979351;28;20178;-84
2023/01/08 11:47:01;;;;;;;5.40;2.13;;;;;;;;;;4978840;28;20272;-84
2023/01/08 11:49:30;;;;;;;4.90;2.00;;;;;;;;;;4964482;28;20245;-84
2023/01/08 11:52:15;;;;;;;4.13;1.80;;;;;;;;;;4967139;28;20207;-84
2023/01/08 11:54:57;;;;;;;5.80;2.00;;;;;;;;;;4940148;29;20238;-84
2023/01/08 11:57:46;;;;;;;5.30;1.97;;;;;;;;;;4940176;28;20187;-83
2023/01/08 12:00:28;;;;;;;4.30;1.70;;;;;;;;;;4947407;28;20214;-84
2023/01/08 12:03:08;;;;;;;4.53;1.97;;;;;;;;;;4955876;28;20182;-84
2023/01/08 12:05:34;;;;;;;3.27;1.53;;;;;;;;;;4940624;28;20186;-84
2023/01/08 12:08:02;;;;;;;3.50;1.50;;;;;;;;;;4940370;28;20182;-84
2023/01/08 12:10:43;;;;;;;2.63;1.50;;;;;;;;;;4940190;28;20179;-83
2023/01/08 12:13:36;;;;;;;2.80;1.40;;;;;;;;;;4943533;28;20261;-84
2023/01/08 12:16:05;;;;;;;5.07;1.53;;;;;;;;;;4959340;28;20237;-84
2023/01/08 12:18:57;;;;;;;4.13;1.60;;;;;;;;;;4952617;28;20187;-84
2023/01/08 12:21:23;;;;;;;3.70;1.60;;;;;;;;;;4940615;28;20187;-84
2023/01/08 12:23:55;;;;;;;2.63;1.47;;;;;;;;;;4953205;28;20194;-84
2023/01/08 12:26:40;;;;;;;3.10;1.33;;;;;;;;;;4952393;28;20269;-84
2023/01/08 12:29:12;;;;;;;3.53;1.50;;;;;;;;;;4940182;28;20191;-84
2023/01/08 12:31:57;;;;;;;2.80;1.40;;;;;;;;;;4957014;28;20231;-84
2023/01/08 12:34:45;;;;;;;2.63;1.30;;;;;;;;;;4959018;28;20186;-84
2023/01/08 12:37:16;;;;;;;3.43;1.50;;;;;;;;;;4959229;28;20217;-84
2023/01/08 12:39:48;;;;;;;3.57;1.27;;;;;;;;;;4945720;28;20272;-81
2023/01/08 12:42:17;;;;;;;4.00;1.48;;;;;;;;;;4942782;28;20417;-81
2023/01/08 12:44:45;;;;;;;1.73;1.10;;;;;;;;;;4946020;28;20186;-81
2023/01/08 12:47:15;;;;;;;1.73;0.90;;;;;;;;;;4939323;28;20299;-81
2023/01/08 12:50:01;;;;;;;3.03;0.93;;;;;;;;;;4939867;28;20262;-81
2023/01/08 12:52:52;;;;;;;2.27;0.93;;;;;;;;;;4956042;28;20187;-81
2023/01/08 12:55:35;;;;;;;2.97;1.00;;;;;;;;;;4939536;28;20199;-85
2023/01/08 12:58:10;;;;;;;2.10;1.08;;;;;;;;;;4939081;28;20465;-84
2023/01/08 13:00:36;;;;;;;1.70;1.07;;;;;;;;;;4939252;28;20171;-84
2023/01/08 13:03:03;;;;;;;1.57;0.97;;;;;;;;;;4939733;28;20183;-85
2023/01/08 13:05:31;;;;;;;2.47;1.10;;;;;;;;;;4958335;28;20189;-84
2023/01/08 13:08:16;;;;;;;3.57;1.40;;;;;;;;;;4958437;28;20179;-84
2023/01/08 13:10:50;;;;;;;1.73;1.07;;;;;;;;;;4939215;28;20352;-85
2023/01/08 13:13:28;;;;;;;1.43;1.00;;;;;;;;;;4939132;28;20238;-81
2023/01/08 13:16:15;;;;;;;2.17;1.03;;;;;;;;;;4939091;28;20238;-80
2023/01/08 13:18:50;;;;;;;3.07;1.20;;;;;;;;;;4955263;28;20214;-80
2023/01/08 13:21:16;;;;;;;2.00;1.20;;;;;;;;;;4938917;28;20179;-84
2023/01/08 13:23:42;;;;;;;2.87;1.23;;;;;;;;;;4936262;29;20191;-84
2023/01/08 13:26:08;;;;;;;4.07;1.37;;;;;;;;;;4938911;29;20191;-84
2023/01/08 13:28:34;;;;;;;2.47;1.23;;;;;;;;;;4939145;29;20194;-84
2023/01/08 13:31:19;;;;;;;5.47;1.70;;;;;;;;;;4947486;28;20195;-84
2023/01/08 13:33:46;;;;;;;3.53;1.43;;;;;;;;;;4954960;28;20278;-84
2023/01/08 13:36:12;;;;;;;2.13;1.30;;;;;;;;;;4954663;29;20211;-84
2023/01/08 13:38:39;;;;;;;3.20;1.40;;;;;;;;;;4954626;28;20266;-84
2023/01/08 13:41:05;;;;;;;4.55;1.55;;;;;;;;;;4957001;28;20418;-84
2023/01/08 13:43:36;;;;;;;2.37;1.37;;;;;;;;;;4942581;28;20179;-84
2023/01/08 13:46:02;;;;;;;4.40;1.60;;;;;;;;;;4958111;28;20428;-91
2023/01/08 13:48:29;;;;;;;5.90;1.50;;;;;;;;;;4944083;28;20254;-90
2023/01/08 13:50:56;;;;;;;3.97;1.60;;;;;;;;;;4943937;28;20269;-91
2023/01/08 13:53:23;;;;;;;5.03;1.60;;;;;;;;;;4943069;28;20191;-89
2023/01/08 13:55:59;;;;;;;5.57;1.80;;;;;;;;;;4958316;28;20219;-91
2023/01/08 13:58:27;;;;;;;4.93;1.80;;;;;;;;;;4974386;28;20267;-90
2023/01/08 14:00:54;;;;;;;3.37;1.70;;;;;;;;;;4974538;28;20226;-90
2023/01/08 14:03:23;;;;;;;4.83;1.67;;;;;;;;;;4958819;28;20179;-84
2023/01/08 14:05:50;;;;;;;5.37;1.60;;;;;;;;;;4974378;28;20187;-84
2023/01/08 14:08:23;;;;;;;4.13;1.57;;;;;;;;;;4958653;28;20263;-84
2023/01/08 14:10:49;;;;;;;5.93;2.00;;;;;;;;;;4974220;28;20190;-84
2023/01/08 14:13:15;;;;;;;3.73;1.37;;;;;;;;;;4973909;28;20245;-85
2023/01/08 14:15:41;;;;;;;6.10;1.50;;;;;;;;;;4966101;28;20233;-84
2023/01/08 14:18:07;;;;;;;4.07;1.67;;;;;;;;;;4926265;29;20278;-84
2023/01/08 14:20:35;;;;;;;5.43;1.57;;;;;;;;;;4926597;29;20190;-91
2023/01/08 14:23:01;;;;;;;4.80;1.60;;;;;;;;;;4942315;28;20176;-90
2023/01/08 14:25:28;;;;;;;4.20;1.57;;;;;;;;;;4941984;28;20192;-91
2023/01/08 14:27:55;;;;;;;4.43;1.73;;;;;;;;;;4944099;28;20259;-91
2023/01/08 14:30:21;;;;;;;5.87;1.80;;;;;;;;;;4944612;28;20190;-89
2023/01/08 14:32:47;;;;;;;6.73;2.00;;;;;;;;;;4973874;28;20183;-92
2023/01/08 14:35:18;;;;;;;8.40;1.80;;;;;;;;;;4957905;28;20215;-90
2023/01/08 14:43:32;;;;;;;7.27;2.00;;;;;;;;;;4956687;28;20235;-80
2023/01/08 14:45:58;;;;;;;5.60;1.80;;;;;;;;;;4938791;28;20192;-81
2023/01/08 14:48:41;;;;;;;6.20;1.70;;;;;;;;;;4917185;29;20282;-81
2023/01/08 14:51:08;;;;;;;5.47;2.03;;;;;;;;;;4937330;29;20198;-84
2023/01/08 14:53:37;;;;;;;4.27;1.70;;;;;;;;;;4939659;29;20199;-91
2023/01/08 14:56:05;;;;;;;4.63;1.70;;;;;;;;;;4940940;29;20221;-91
2023/01/08 14:58:36;;;;;;;4.90;1.50;;;;;;;;;;4941557;29;20187;-90
2023/01/08 15:01:14;;;;;;;5.57;1.80;;;;;;;;;;4958150;29;20179;-90